Página principal
METAR-TAF:

METAR-TAF

Aeroportos :

Campbeltown, Escócia

latitude: 55-26-14N, longitude: 005-41-11W, altura: 13 m

Observação actual do tempo

O boletim foi feito há 1 hora e 59 minutos, às 17:20 UTC
Vento 21 kt de sudeste
Temperatura 11°C
Humidade 76%
Pressão 1026 hPa
Visibilidade 10 km ou mais
sem nuvens abaixo de 1500 metros e sem cumulonimbus

METAR: EGEC 221720Z 14021KT CAVOK 11/07 Q1026

Hora: 19:19 (19:19 UTC)

Previsão

O boletim foi feito há 5 horas e 21 minutos, às 13:58 UTC
Previsão válida de 22 às 15 UTC a 22 às 18 UTC
Vento 20 kt de su-sudeste
Visibilidade 10 km ou mais
Nuvens dispersasa uma altura de 2000 ft
Temporariamente
de 22 às 15 UTC a 22 às 18 UTC
Vento 27 kt de su-sudeste com rajadas de 37 kt

TAF: EGEC 221358Z 2215/2218 15020KT 9999 SCT020 TEMPO 2215/2218 15027G37KT

Observações e previsões do tempo de mais de 4000 aeroportos (mensagens METAR e TAF).

As estações disponíveis são os pontos amarelos e vermelhos sobre o mapa.

Mova o rato sobre o mapa para ver o nome da estação.

Depois clique no ponto para visualizar as observações e previsões meteorológicas.

Para alterar o mapa : clique nos botões verdes com uma cruz preta para aumentar o zoom; no botão verde com uma pitada de zoom; ou nas setas verdes para mapas adjacentes.


METAR-TAF: